Palermo — V2IA7 — position and weather

sailwx.info

Track history (hours):
 
Tides and Currents Weather Stations Pressure Air Temp Water Temp Dewpoint Dewpoint Depression Visibility Wind Speed Wind Dir Waves Ship Positions

Palermo

Last reported at 2016-Jan-28 02:33 UTC. Time now 2016-Feb-06 09:09 UTC.
Position N 29°21' W 094°47'.
Warning: this ship's position is 9 days out of date.

Length 118 m; draft 5.6 m.

Type: Cargo ship. MMSI: 304255000.

Date/timePositionNaut miles runAvg speedWind from/ knotsBaromVisibWave heightAir tempDewpointWater temp
2016-Jan-28 02:33N 29°21' W 094°47'1212.2
2016-Jan-28 01:33N 29°31' W 094°53'1111.2
2016-Jan-28 00:33N 29°41' W 094°59'7 7.0
2016-Jan-27 23:33N 29°44' W 095°07'  
2016-Jan-24 06:32N 29°43' W 095°14'5 5.5
2016-Jan-24 05:33N 29°44' W 095°08'6 6.2
2016-Jan-24 04:34N 29°43' W 095°01'1110.5
2016-Jan-24 03:33N 29°34' W 094°55'  
2016-Jan-19 23:25N 19°32' W 095°55'1112.5
2016-Jan-19 22:33N 19°21' W 095°57'1211.6
2016-Jan-19 21:33N 19°11' W 096°03'5 4.4
2016-Jan-19 20:31N 19°12' W 096°08'0 0.0
2016-Jan-19 19:31N 19°12' W 096°08'0 0.0
2016-Jan-19 18:28N 19°12' W 096°08'0 0.0
2016-Jan-19 17:31N 19°12' W 096°08'0 0.0
2016-Jan-19 16:31N 19°12' W 096°08'0 0.0
2016-Jan-19 15:31N 19°12' W 096°08'0 0.0
2016-Jan-19 14:31N 19°12' W 096°08'0 0.0
2016-Jan-19 13:31N 19°12' W 096°08'0 0.0
2016-Jan-19 12:31N 19°12' W 096°08'0 0.0
2016-Jan-19 11:31N 19°12' W 096°08'0 0.0
2016-Jan-19 10:31N 19°12' W 096°08'0 0.0
2016-Jan-19 09:25N 19°12' W 096°08'0 0.0
2016-Jan-19 08:22N 19°12' W 096°08'0 0.0
2016-Jan-19 07:31N 19°12' W 096°08'0 0.0
2016-Jan-19 06:28N 19°12' W 096°08'0 0.0
2016-Jan-19 05:31N 19°12' W 096°08'0 0.0
2016-Jan-19 04:25N 19°12' W 096°08'0 0.0
2016-Jan-19 03:31N 19°12' W 096°08'0 0.0
2016-Jan-19 02:31N 19°12' W 096°08'0 0.0
2016-Jan-19 01:31N 19°12' W 096°08'0 0.0
2016-Jan-19 00:31N 19°12' W 096°08'0 0.0
2016-Jan-18 23:31N 19°12' W 096°08'0 0.0
2016-Jan-18 22:31N 19°12' W 096°08'0 0.0
2016-Jan-18 21:31N 19°12' W 096°08'0 0.0
2016-Jan-18 20:31N 19°12' W 096°08'0 0.0
2016-Jan-18 19:31N 19°12' W 096°08'0 0.0
2016-Jan-18 18:31N 19°12' W 096°08'0 0.0
2016-Jan-18 17:31N 19°12' W 096°08'0 0.0
2016-Jan-18 16:31N 19°12' W 096°08'0 0.0
2016-Jan-18 15:31N 19°12' W 096°08'0 0.0
2016-Jan-18 14:31N 19°12' W 096°08'0 0.0
2016-Jan-18 13:31N 19°12' W 096°08'0 0.0
2016-Jan-18 12:31N 19°12' W 096°08'0 0.0
2016-Jan-18 11:31N 19°12' W 096°08'0 0.0
2016-Jan-18 10:31N 19°12' W 096°08'0 0.0
2016-Jan-18 09:31N 19°12' W 096°08'0 0.0
2016-Jan-18 08:31N 19°12' W 096°08'0 0.0
2016-Jan-18 07:25N 19°12' W 096°08'0 0.0
2016-Jan-18 06:31N 19°12' W 096°08'0 0.0
2016-Jan-18 05:31N 19°12' W 096°08'0 0.0
2016-Jan-18 04:31N 19°12' W 096°08'0 0.0
2016-Jan-18 03:31N 19°12' W 096°08'  
Track history (hours):
 
Tides and Currents Weather Stations Pressure Air Temp Water Temp Dewpoint Dewpoint Depression Visibility Wind Speed Wind Dir Waves Ship Positions

Palermo

Last reported at 2016-Jan-28 02:33 UTC. Time now 2016-Feb-06 09:09 UTC.
Position N 29°21' W 094°47'.
Warning: this ship's position is 9 days out of date.

Length 118 m; draft 5.6 m.

Type: Cargo ship. MMSI: 304255000.

Date/timePositionNaut miles runAvg speedWind from/ knotsBaromVisibWave heightAir tempDewpointWater temp
2016-Jan-28 02:33N 29°21' W 094°47'1212.2
2016-Jan-28 01:33N 29°31' W 094°53'1111.2
2016-Jan-28 00:33N 29°41' W 094°59'7 7.0
2016-Jan-27 23:33N 29°44' W 095°07'  
2016-Jan-24 06:32N 29°43' W 095°14'5 5.5
2016-Jan-24 05:33N 29°44' W 095°08'6 6.2
2016-Jan-24 04:34N 29°43' W 095°01'1110.5
2016-Jan-24 03:33N 29°34' W 094°55'  
2016-Jan-19 23:25N 19°32' W 095°55'1112.5
2016-Jan-19 22:33N 19°21' W 095°57'1211.6
2016-Jan-19 21:33N 19°11' W 096°03'5 4.4
2016-Jan-19 20:31N 19°12' W 096°08'0 0.0
2016-Jan-19 19:31N 19°12' W 096°08'0 0.0
2016-Jan-19 18:28N 19°12' W 096°08'0 0.0
2016-Jan-19 17:31N 19°12' W 096°08'0 0.0
2016-Jan-19 16:31N 19°12' W 096°08'0 0.0
2016-Jan-19 15:31N 19°12' W 096°08'0 0.0
2016-Jan-19 14:31N 19°12' W 096°08'0 0.0
2016-Jan-19 13:31N 19°12' W 096°08'0 0.0
2016-Jan-19 12:31N 19°12' W 096°08'0 0.0
2016-Jan-19 11:31N 19°12' W 096°08'0 0.0
2016-Jan-19 10:31N 19°12' W 096°08'0 0.0
2016-Jan-19 09:25N 19°12' W 096°08'0 0.0
2016-Jan-19 08:22N 19°12' W 096°08'0 0.0
2016-Jan-19 07:31N 19°12' W 096°08'0 0.0
2016-Jan-19 06:28N 19°12' W 096°08'0 0.0
2016-Jan-19 05:31N 19°12' W 096°08'0 0.0
2016-Jan-19 04:25N 19°12' W 096°08'0 0.0
2016-Jan-19 03:31N 19°12' W 096°08'0 0.0
2016-Jan-19 02:31N 19°12' W 096°08'0 0.0
2016-Jan-19 01:31N 19°12' W 096°08'0 0.0
2016-Jan-19 00:31N 19°12' W 096°08'0 0.0
2016-Jan-18 23:31N 19°12' W 096°08'0 0.0
2016-Jan-18 22:31N 19°12' W 096°08'0 0.0
2016-Jan-18 21:31N 19°12' W 096°08'0 0.0
2016-Jan-18 20:31N 19°12' W 096°08'0 0.0
2016-Jan-18 19:31N 19°12' W 096°08'0 0.0
2016-Jan-18 18:31N 19°12' W 096°08'0 0.0
2016-Jan-18 17:31N 19°12' W 096°08'0 0.0
2016-Jan-18 16:31N 19°12' W 096°08'0 0.0
2016-Jan-18 15:31N 19°12' W 096°08'0 0.0
2016-Jan-18 14:31N 19°12' W 096°08'0 0.0
2016-Jan-18 13:31N 19°12' W 096°08'0 0.0
2016-Jan-18 12:31N 19°12' W 096°08'0 0.0
2016-Jan-18 11:31N 19°12' W 096°08'0 0.0
2016-Jan-18 10:31N 19°12' W 096°08'0 0.0
2016-Jan-18 09:31N 19°12' W 096°08'0 0.0
2016-Jan-18 08:31N 19°12' W 096°08'0 0.0
2016-Jan-18 07:25N 19°12' W 096°08'0 0.0
2016-Jan-18 06:31N 19°12' W 096°08'0 0.0
2016-Jan-18 05:31N 19°12' W 096°08'0 0.0
2016-Jan-18 04:31N 19°12' W 096°08'0 0.0
2016-Jan-18 03:31N 19°12' W 096°08'  

Dump ship's entire track history